createdAt,value
2018-02-11T00:01:04.957Z,3.09
2018-02-11T00:03:32.919Z,2.97
2018-02-11T00:06:00.335Z,3.01
2018-02-11T00:08:27.794Z,3.16
2018-02-11T00:10:55.565Z,2.83
2018-02-11T00:13:23.024Z,2.68
2018-02-11T00:15:50.475Z,2.74
2018-02-11T00:18:18.240Z,2.81
2018-02-11T00:20:45.688Z,2.75
2018-02-11T00:23:13.152Z,2.77
2018-02-11T00:25:40.944Z,2.70
2018-02-11T00:28:08.392Z,2.72
2018-02-11T00:30:35.837Z,2.67
2018-02-11T00:33:03.636Z,2.92
2018-02-11T00:35:31.083Z,2.78
2018-02-11T00:38:04.688Z,2.88
2018-02-11T00:40:32.153Z,2.83
2018-02-11T00:42:59.600Z,2.78
2018-02-11T00:45:27.272Z,2.77
2018-02-11T00:47:54.720Z,2.74
2018-02-11T00:50:22.884Z,2.78
2018-02-11T00:52:50.694Z,2.71
2018-02-11T00:55:18.144Z,2.66
2018-02-11T00:57:45.601Z,2.88
2018-02-11T01:00:13.556Z,2.91
2018-02-11T01:02:41.008Z,2.81
2018-02-11T01:05:08.459Z,2.86
2018-02-11T01:07:36.056Z,3.03
2018-02-11T01:10:03.512Z,2.75
2018-02-11T01:12:30.956Z,2.77
2018-02-11T01:14:59.052Z,2.70
2018-02-11T01:17:26.504Z,2.74
2018-02-11T01:19:53.958Z,2.73
2018-02-11T01:22:21.738Z,2.75
2018-02-11T01:24:49.186Z,2.81
2018-02-11T01:27:16.634Z,2.98
2018-02-11T01:29:44.480Z,3.08
2018-02-11T01:32:11.933Z,2.86
2018-02-11T01:34:39.387Z,3.00
2018-02-11T01:37:07.115Z,2.94
2018-02-11T01:39:34.576Z,2.89
2018-02-11T01:42:02.028Z,2.91
2018-02-11T01:44:29.797Z,2.93
2018-02-11T01:46:57.250Z,2.93
2018-02-11T01:49:24.695Z,2.87
2018-02-11T01:51:52.534Z,3.15
2018-02-11T01:54:20.009Z,2.96
2018-02-11T01:56:47.477Z,2.82
2018-02-11T01:59:15.433Z,2.75
2018-02-11T02:01:42.884Z,2.77
2018-02-11T02:04:10.329Z,3.09
2018-02-11T02:06:38.173Z,3.03
2018-02-11T02:09:05.631Z,3.18
2018-02-11T02:11:33.093Z,3.03
2018-02-11T02:14:01.153Z,2.82
2018-02-11T02:16:28.612Z,2.72
2018-02-11T02:18:56.064Z,2.83
2018-02-11T02:21:24.152Z,2.89
2018-02-11T02:23:51.601Z,2.98
2018-02-11T02:26:19.048Z,2.88
2018-02-11T02:28:46.845Z,2.78
2018-02-11T02:31:14.302Z,2.96
2018-02-11T02:33:41.748Z,2.88
2018-02-11T02:36:09.520Z,2.83
2018-02-11T02:38:36.967Z,2.89
2018-02-11T02:41:04.419Z,2.89
2018-02-11T02:43:32.217Z,2.83
2018-02-11T02:45:59.661Z,2.81
2018-02-11T02:48:27.118Z,2.72
2018-02-11T02:50:54.901Z,2.64
2018-02-11T02:53:23.053Z,2.72
2018-02-11T02:55:50.505Z,2.85
2018-02-11T02:58:18.329Z,2.85
2018-02-11T03:00:45.787Z,3.03
2018-02-11T03:03:13.250Z,2.83
2018-02-11T03:05:41.218Z,2.76
2018-02-11T03:08:08.669Z,2.71
2018-02-11T03:10:36.123Z,2.85
2018-02-11T03:13:04.192Z,2.76
2018-02-11T03:15:31.657Z,2.70
2018-02-11T03:17:59.112Z,2.69
2018-02-11T03:20:26.885Z,2.63
2018-02-11T03:22:54.345Z,2.69
2018-02-11T03:25:21.796Z,2.69
2018-02-11T03:27:49.564Z,2.68
2018-02-11T03:30:17.018Z,2.64
2018-02-11T03:32:44.473Z,2.67
2018-02-11T03:35:12.250Z,2.69
2018-02-11T03:37:39.694Z,2.73
2018-02-11T03:40:07.151Z,2.74
2018-02-11T03:42:34.924Z,2.69
2018-02-11T03:45:02.378Z,2.61
2018-02-11T03:47:29.837Z,2.55
2018-02-11T03:49:57.621Z,2.63
2018-02-11T03:52:25.066Z,2.63
2018-02-11T03:54:52.932Z,2.68
2018-02-11T03:57:20.668Z,2.77
2018-02-11T03:59:48.146Z,2.70
2018-02-11T04:02:15.591Z,2.65
2018-02-11T04:04:43.325Z,2.65
2018-02-11T04:07:10.779Z,2.49
2018-02-11T04:09:38.244Z,2.59
2018-02-11T04:12:05.993Z,2.58
2018-02-11T04:14:33.443Z,2.60
2018-02-11T04:17:00.892Z,2.66
2018-02-11T04:19:28.699Z,2.69
2018-02-11T04:21:56.157Z,2.54
2018-02-11T04:24:23.609Z,2.60
2018-02-11T04:26:51.365Z,2.50
2018-02-11T04:29:18.807Z,2.61
2018-02-11T04:31:46.282Z,2.47
2018-02-11T04:34:14.106Z,2.52
2018-02-11T04:36:41.554Z,2.50
2018-02-11T04:39:08.999Z,2.54
2018-02-11T04:41:37.050Z,2.43
2018-02-11T04:44:04.504Z,2.56
2018-02-11T04:46:31.963Z,2.60
2018-02-11T04:49:00.051Z,2.59
2018-02-11T04:51:27.509Z,2.47
2018-02-11T04:53:54.956Z,2.44
2018-02-11T04:56:22.739Z,2.48
2018-02-11T04:58:50.224Z,2.39
2018-02-11T05:01:17.672Z,2.43
2018-02-11T05:03:45.435Z,2.44
2018-02-11T05:06:13.093Z,2.42
2018-02-11T05:08:40.526Z,2.38
2018-02-11T05:11:08.422Z,2.38
2018-02-11T05:13:35.877Z,2.40
2018-02-11T05:16:03.321Z,2.36
2018-02-11T05:18:31.095Z,2.36
2018-02-11T05:20:58.540Z,2.36
2018-02-11T05:23:25.996Z,2.28
2018-02-11T05:25:53.847Z,2.33
2018-02-11T05:28:21.257Z,2.42
2018-02-11T05:30:48.724Z,2.43
2018-02-11T05:33:16.479Z,2.42
2018-02-11T05:35:43.933Z,2.48
2018-02-11T05:38:11.380Z,2.68
2018-02-11T05:40:39.166Z,2.69
2018-02-11T05:43:06.628Z,2.63
2018-02-11T05:45:34.097Z,2.61
2018-02-11T05:48:02.162Z,2.61
2018-02-11T05:50:29.612Z,2.58
2018-02-11T05:52:57.057Z,2.59
2018-02-11T05:55:24.845Z,2.62
2018-02-11T05:57:52.300Z,2.75
2018-02-11T06:00:19.756Z,2.85
2018-02-11T06:02:47.524Z,2.72
2018-02-11T06:05:14.985Z,2.82
2018-02-11T06:07:42.447Z,2.94
2018-02-11T06:10:10.218Z,2.95
2018-02-11T06:12:37.681Z,2.86
2018-02-11T06:15:05.130Z,2.78
2018-02-11T06:17:32.896Z,2.72
2018-02-11T06:20:00.344Z,2.75
2018-02-11T06:22:27.801Z,2.67
2018-02-11T06:24:55.585Z,2.75
2018-02-11T06:27:23.033Z,2.59
2018-02-11T06:29:50.484Z,2.54
2018-02-11T06:32:18.292Z,2.82
2018-02-11T06:34:45.774Z,2.76
2018-02-11T06:37:13.228Z,2.79
2018-02-11T06:39:40.977Z,2.97
2018-02-11T06:42:08.430Z,3.16
2018-02-11T06:44:35.892Z,3.00
2018-02-11T06:47:03.648Z,2.84
2018-02-11T06:49:31.092Z,2.64
2018-02-11T06:51:58.546Z,2.76
2018-02-11T06:54:26.635Z,2.76
2018-02-11T06:56:54.081Z,2.84
2018-02-11T06:59:24.404Z,2.93
2018-02-11T07:01:52.104Z,3.25
2018-02-11T07:04:19.565Z,3.51
2018-02-11T07:06:48.037Z,3.10
2018-02-11T07:09:16.117Z,3.08
2018-02-11T07:11:43.569Z,2.94
2018-02-11T07:14:11.016Z,3.06
2018-02-11T07:16:39.065Z,3.36
2018-02-11T07:19:06.518Z,3.32
2018-02-11T07:21:33.970Z,3.57
2018-02-11T07:24:01.701Z,3.49
2018-02-11T07:26:29.162Z,3.07
2018-02-11T07:28:56.620Z,3.14
2018-02-11T07:31:24.382Z,3.29
2018-02-11T07:33:51.833Z,3.39
2018-02-11T07:36:19.305Z,3.25
2018-02-11T07:38:47.065Z,3.30
2018-02-11T07:41:14.521Z,3.40
2018-02-11T07:43:41.976Z,3.39
2018-02-11T07:46:09.751Z,3.22
2018-02-11T07:48:37.209Z,3.46
2018-02-11T07:51:04.672Z,3.54
2018-02-11T07:53:32.457Z,3.25
2018-02-11T07:55:59.913Z,3.34
2018-02-11T07:58:27.380Z,3.52
2018-02-11T08:00:55.764Z,3.46
2018-02-11T08:03:23.219Z,3.83
2018-02-11T08:05:50.693Z,3.72
2018-02-11T08:08:18.424Z,4.00
2018-02-11T08:10:45.874Z,4.07
2018-02-11T08:13:13.329Z,4.00
2018-02-11T08:15:41.121Z,4.40
2018-02-11T08:18:08.583Z,4.16
2018-02-11T08:20:36.049Z,4.19
2018-02-11T08:23:03.812Z,4.28
2018-02-11T08:25:31.269Z,4.36
2018-02-11T08:27:58.737Z,4.25
2018-02-11T08:30:26.831Z,4.41
2018-02-11T08:32:54.271Z,4.68
2018-02-11T08:35:21.732Z,4.76
2018-02-11T08:37:49.378Z,4.92
2018-02-11T08:40:16.838Z,4.94
2018-02-11T08:42:44.299Z,4.99
2018-02-11T08:45:12.186Z,5.17
2018-02-11T08:47:39.703Z,5.11
2018-02-11T08:50:07.125Z,5.07
2018-02-11T08:52:35.176Z,5.15
2018-02-11T08:55:02.639Z,4.99
2018-02-11T08:57:30.102Z,5.28
2018-02-11T08:59:57.864Z,5.46
2018-02-11T09:02:26.022Z,5.49
2018-02-11T09:04:53.490Z,4.97
2018-02-11T09:07:21.462Z,5.08
2018-02-11T09:09:48.934Z,5.19
2018-02-11T09:12:16.394Z,4.98
2018-02-11T09:14:44.159Z,5.25
2018-02-11T09:17:11.612Z,5.25
2018-02-11T09:19:39.056Z,5.30
2018-02-11T09:22:06.837Z,5.66
2018-02-11T09:24:34.291Z,5.27
2018-02-11T09:27:01.753Z,5.09
2018-02-11T09:29:29.525Z,5.10
2018-02-11T09:31:56.984Z,5.72
2018-02-11T09:34:24.449Z,5.61
2018-02-11T09:36:52.216Z,5.20
2018-02-11T09:39:19.678Z,4.83
2018-02-11T09:41:47.141Z,4.92
2018-02-11T09:44:14.911Z,4.82
2018-02-11T09:46:42.364Z,5.09
2018-02-11T09:49:09.827Z,4.93
2018-02-11T09:51:37.498Z,5.20
2018-02-11T09:54:04.958Z,5.42
2018-02-11T09:56:32.416Z,5.21
2018-02-11T09:59:00.063Z,5.44
2018-02-11T10:01:27.519Z,5.58
2018-02-11T10:03:56.689Z,5.38
2018-02-11T10:06:24.512Z,5.54
2018-02-11T10:08:51.970Z,5.76
2018-02-11T10:11:19.421Z,5.98
2018-02-11T10:13:47.195Z,5.73
2018-02-11T10:16:14.648Z,5.77
2018-02-11T10:18:42.116Z,6.05
2018-02-11T10:21:09.758Z,6.05
2018-02-11T10:23:37.214Z,6.28
2018-02-11T10:26:04.663Z,6.06
2018-02-11T10:28:32.572Z,5.89
2018-02-11T10:31:00.070Z,5.84
2018-02-11T10:33:27.529Z,6.16
2018-02-11T10:35:55.388Z,6.00
2018-02-11T10:38:22.861Z,6.39
2018-02-11T10:40:50.321Z,6.57
2018-02-11T10:43:18.253Z,6.66
2018-02-11T10:45:45.718Z,6.76
2018-02-11T10:48:13.184Z,5.81
2018-02-11T10:50:40.945Z,5.83
2018-02-11T10:53:08.413Z,6.25
2018-02-11T10:55:35.869Z,6.66
2018-02-11T10:58:03.685Z,6.49
2018-02-11T11:00:31.142Z,6.80
2018-02-11T11:02:58.593Z,6.61
2018-02-11T11:05:27.202Z,6.04
2018-02-11T11:07:54.647Z,7.09
2018-02-11T11:10:22.104Z,7.23
2018-02-11T11:12:50.248Z,7.91
2018-02-11T11:22:01.366Z,8.03
2018-02-11T11:24:28.822Z,8.94
2018-02-11T11:26:56.273Z,9.02
2018-02-11T11:29:24.354Z,8.28
2018-02-11T11:31:51.817Z,8.63
2018-02-11T11:34:19.326Z,9.77
2018-02-11T11:36:47.065Z,10.23
2018-02-11T11:39:14.515Z,10.01
2018-02-11T11:41:41.963Z,10.93
2018-02-11T11:44:09.721Z,10.73
2018-02-11T11:46:37.180Z,10.87
2018-02-11T11:49:04.644Z,10.95
2018-02-11T11:51:32.709Z,11.15
2018-02-11T11:54:00.161Z,11.46
2018-02-11T11:56:27.643Z,11.45
2018-02-11T11:58:55.404Z,11.90
2018-02-11T12:01:22.862Z,12.14
2018-02-11T12:03:50.323Z,12.38
2018-02-11T12:06:18.644Z,11.87
2018-02-11T12:08:46.094Z,12.33
2018-02-11T12:11:13.548Z,12.06
2018-02-11T12:13:41.367Z,12.82
2018-02-11T12:16:08.824Z,12.86
2018-02-11T12:18:36.265Z,12.28
2018-02-11T12:21:04.073Z,13.71
2018-02-11T12:23:31.526Z,13.23
2018-02-11T12:25:58.974Z,13.24
2018-02-11T12:28:26.765Z,12.60
2018-02-11T12:30:54.216Z,12.19
2018-02-11T12:33:21.673Z,12.22
2018-02-11T12:35:49.458Z,12.30
2018-02-11T12:38:16.925Z,10.43
2018-02-11T12:40:44.373Z,13.02
2018-02-11T12:43:12.128Z,12.42
2018-02-11T12:45:39.589Z,12.03
2018-02-11T12:48:07.051Z,11.42
2018-02-11T12:50:34.825Z,10.54
2018-02-11T12:53:03.173Z,11.07
2018-02-11T12:55:30.629Z,11.46
2018-02-11T12:57:58.437Z,12.19
2018-02-11T13:00:25.884Z,13.39
2018-02-11T13:09:37.474Z,11.26
2018-02-11T13:12:04.942Z,10.16
2018-02-11T13:14:32.397Z,9.61
2018-02-11T13:17:00.367Z,10.66
2018-02-11T13:19:27.820Z,11.25
2018-02-11T13:21:55.267Z,10.25
2018-02-11T13:24:23.019Z,9.50
2018-02-11T13:26:50.486Z,10.85
2018-02-11T13:29:17.948Z,10.76
2018-02-11T13:31:45.703Z,11.25
2018-02-11T13:34:13.172Z,10.55
2018-02-11T13:36:40.640Z,9.51
2018-02-11T13:39:08.396Z,9.15
2018-02-11T13:41:35.857Z,9.74
2018-02-11T13:44:03.320Z,10.50
2018-02-11T13:46:31.371Z,9.77
2018-02-11T13:48:58.824Z,9.63
2018-02-11T13:51:26.276Z,8.92
2018-02-11T13:53:54.057Z,9.06
2018-02-11T13:56:21.516Z,7.98
2018-02-11T13:58:48.975Z,8.90
2018-02-11T14:01:16.919Z,8.34
2018-02-11T14:03:44.373Z,8.13
2018-02-11T14:06:11.828Z,8.43
2018-02-11T14:08:39.736Z,8.31
2018-02-11T14:11:07.590Z,8.23
2018-02-11T14:13:35.039Z,8.31
2018-02-11T14:16:02.980Z,7.86
2018-02-11T14:18:30.437Z,7.64
2018-02-11T14:20:57.924Z,7.82
2018-02-11T14:23:25.732Z,7.79
2018-02-11T14:25:53.179Z,7.73
2018-02-11T14:28:20.632Z,7.21
2018-02-11T14:30:48.422Z,7.74
2018-02-11T14:33:15.877Z,7.57
2018-02-11T14:35:43.339Z,7.75
2018-02-11T14:38:11.125Z,7.61
2018-02-11T14:40:38.574Z,7.71
2018-02-11T14:43:06.027Z,7.61
2018-02-11T14:45:33.805Z,7.54
2018-02-11T14:48:01.256Z,7.67
2018-02-11T14:50:28.715Z,7.18
2018-02-11T14:52:56.491Z,7.69
2018-02-11T14:55:23.964Z,7.39
2018-02-11T14:57:51.410Z,7.37
2018-02-11T15:00:19.183Z,7.36
2018-02-11T15:02:46.630Z,7.42
2018-02-11T15:05:14.084Z,7.31
2018-02-11T15:07:41.947Z,7.31
2018-02-11T15:10:09.398Z,7.36
2018-02-11T15:12:38.732Z,7.25
2018-02-11T15:15:06.388Z,7.12
2018-02-11T15:17:33.880Z,6.99
2018-02-11T15:20:01.617Z,6.83
2018-02-11T15:22:29.337Z,6.86
2018-02-11T15:24:56.789Z,7.04
2018-02-11T15:27:24.255Z,6.89
2018-02-11T15:29:52.069Z,6.61
2018-02-11T15:32:19.514Z,6.31
2018-02-11T15:34:47.316Z,6.19
2018-02-11T15:37:15.061Z,6.10
2018-02-11T15:39:42.557Z,6.34
2018-02-11T15:42:10.004Z,6.12
2018-02-11T15:44:37.764Z,6.13
2018-02-11T15:47:05.279Z,6.08
2018-02-11T15:49:32.723Z,5.94
2018-02-11T15:52:00.484Z,6.06
2018-02-11T15:54:27.946Z,5.98
2018-02-11T15:56:55.408Z,6.04
2018-02-11T15:59:23.440Z,5.86
2018-02-11T16:01:50.894Z,6.15
2018-02-11T16:04:18.353Z,6.09
2018-02-11T16:06:46.238Z,5.91
2018-02-11T16:09:13.728Z,5.84
2018-02-11T16:11:41.354Z,5.93
2018-02-11T16:14:10.373Z,5.82
2018-02-11T16:16:37.834Z,5.94
2018-02-11T16:19:05.308Z,5.91
2018-02-11T16:21:33.328Z,5.94
2018-02-11T16:24:00.836Z,5.89
2018-02-11T16:26:28.519Z,5.72
2018-02-11T16:28:56.683Z,5.76
2018-02-11T16:31:24.128Z,5.71
2018-02-11T16:33:51.606Z,5.63
2018-02-11T16:36:19.641Z,5.80
2018-02-11T16:38:47.691Z,5.72
2018-02-11T16:41:15.701Z,5.69
2018-02-11T16:43:43.543Z,5.67
2018-02-11T16:46:10.989Z,5.78
2018-02-11T16:48:38.491Z,5.71
2018-02-11T16:51:06.232Z,5.75
2018-02-11T16:53:33.678Z,5.70
2018-02-11T16:56:01.133Z,5.65
2018-02-11T16:58:29.212Z,5.72
2018-02-11T17:00:56.676Z,5.67
2018-02-11T17:03:24.198Z,5.67
2018-02-11T17:05:51.941Z,5.57
2018-02-11T17:08:19.419Z,5.62
2018-02-11T17:10:46.868Z,5.51
2018-02-11T17:13:14.542Z,5.63
2018-02-11T17:15:42.750Z,5.50
2018-02-11T17:18:10.198Z,5.50
2018-02-11T17:20:37.909Z,5.59
2018-02-11T17:23:05.412Z,5.61
2018-02-11T17:25:33.128Z,5.43
2018-02-11T17:28:00.949Z,5.52
2018-02-11T17:30:28.392Z,5.61
2018-02-11T17:32:55.865Z,5.47
2018-02-11T17:35:23.907Z,5.52
2018-02-11T17:37:51.355Z,5.52
2018-02-11T17:40:18.801Z,5.45
2018-02-11T17:42:46.577Z,5.46
2018-02-11T17:45:14.040Z,5.30
2018-02-11T17:47:41.485Z,5.24
2018-02-11T17:50:09.224Z,5.37
2018-02-11T17:52:36.975Z,5.27
2018-02-11T17:55:04.435Z,5.29
2018-02-11T17:57:32.281Z,5.37
2018-02-11T17:59:59.758Z,5.37
2018-02-11T18:02:27.204Z,5.27
2018-02-11T18:04:54.959Z,5.36
2018-02-11T18:07:22.418Z,5.29
2018-02-11T18:09:49.917Z,5.34
2018-02-11T18:12:17.953Z,5.44
2018-02-11T18:14:45.408Z,5.52
2018-02-11T18:17:13.348Z,5.39
2018-02-11T18:19:41.245Z,5.45
2018-02-11T18:22:08.692Z,5.35
2018-02-11T18:24:36.138Z,5.56
2018-02-11T18:27:03.939Z,5.44
2018-02-11T18:29:31.392Z,5.28
2018-02-11T18:31:58.841Z,5.35
2018-02-11T18:34:26.618Z,5.51
2018-02-11T18:36:54.066Z,5.52
2018-02-11T18:39:21.519Z,5.47
2018-02-11T18:41:49.325Z,5.30
2018-02-11T18:44:16.770Z,5.26
2018-02-11T18:46:44.233Z,5.30
2018-02-11T18:49:12.016Z,5.13
2018-02-11T18:51:39.468Z,5.21
2018-02-11T18:54:06.909Z,5.29
2018-02-11T18:56:34.676Z,5.09
2018-02-11T18:59:02.144Z,5.22
2018-02-11T19:01:29.604Z,5.23
2018-02-11T19:03:57.682Z,5.33
2018-02-11T19:06:25.158Z,5.57
2018-02-11T19:08:52.760Z,5.37
2018-02-11T19:11:20.428Z,5.49
2018-02-11T19:13:47.882Z,5.33
2018-02-11T19:16:15.338Z,5.31
2018-02-11T19:18:43.964Z,5.12
2018-02-11T19:21:11.408Z,5.04
2018-02-11T19:23:39.404Z,5.40
2018-02-11T19:26:07.841Z,5.55
2018-02-11T19:28:35.294Z,5.58
2018-02-11T19:31:02.738Z,5.40
2018-02-11T19:33:30.567Z,5.38
2018-02-11T19:35:58.644Z,5.36
2018-02-11T19:38:26.092Z,5.35
2018-02-11T19:40:53.869Z,5.54
2018-02-11T19:43:21.317Z,5.05
2018-02-11T19:45:49.161Z,5.19
2018-02-11T19:48:17.175Z,5.58
2018-02-11T19:50:44.646Z,5.41
2018-02-11T19:53:12.101Z,5.53
2018-02-11T19:55:40.172Z,5.55
2018-02-11T19:58:07.638Z,5.39
2018-02-11T20:00:35.102Z,5.27
2018-02-11T20:03:02.856Z,5.38
2018-02-11T20:05:30.305Z,5.28
2018-02-11T20:07:57.769Z,5.25
2018-02-11T20:10:25.851Z,5.21
2018-02-11T20:12:53.394Z,5.36
2018-02-11T20:15:20.852Z,5.44
2018-02-11T20:17:48.573Z,5.02
2018-02-11T20:20:18.849Z,5.24
2018-02-11T20:22:46.310Z,5.32
2018-02-11T20:25:13.985Z,5.26
2018-02-11T20:27:41.432Z,5.19
2018-02-11T20:30:08.903Z,5.14
2018-02-11T20:32:36.988Z,5.13
2018-02-11T20:35:04.452Z,5.24
2018-02-11T20:37:31.901Z,5.20
2018-02-11T20:39:59.620Z,5.14
2018-02-11T20:42:27.085Z,5.09
2018-02-11T20:44:56.092Z,5.18
2018-02-11T20:47:23.930Z,5.19
2018-02-11T20:49:51.389Z,5.22
2018-02-11T20:52:18.865Z,4.96
2018-02-11T20:54:47.672Z,5.41
2018-02-11T20:57:15.278Z,5.19
2018-02-11T20:59:43.409Z,4.84
2018-02-11T21:02:11.039Z,4.91
2018-02-11T21:04:38.485Z,5.06
2018-02-11T21:07:07.255Z,5.13
2018-02-11T21:09:35.026Z,4.80
2018-02-11T21:12:02.477Z,4.82
2018-02-11T21:14:29.934Z,4.99
2018-02-11T21:16:58.622Z,4.77
2018-02-11T21:19:26.572Z,4.83
2018-02-11T21:21:56.079Z,4.58
2018-02-11T21:24:24.091Z,4.58
2018-02-11T21:26:51.549Z,4.59
2018-02-11T21:29:19.005Z,4.69
2018-02-11T21:31:46.793Z,4.33
2018-02-11T21:34:14.253Z,4.49
2018-02-11T21:36:41.712Z,4.56
2018-02-11T21:39:09.469Z,4.48
2018-02-11T21:41:36.957Z,4.35
2018-02-11T21:44:04.433Z,4.39
2018-02-11T21:46:32.199Z,4.42
2018-02-11T21:48:59.665Z,4.61
2018-02-11T21:51:27.130Z,4.45
2018-02-11T21:53:54.857Z,4.32
2018-02-11T21:56:22.344Z,4.27
2018-02-11T21:58:49.824Z,4.49
2018-02-11T22:01:17.524Z,4.44
2018-02-11T22:03:45.016Z,4.28
2018-02-11T22:06:12.467Z,4.36
2018-02-11T22:08:40.570Z,4.24
2018-02-11T22:11:08.048Z,4.13
2018-02-11T22:13:35.491Z,4.09
2018-02-11T22:16:03.521Z,4.08
2018-02-11T22:18:31.222Z,4.05
2018-02-11T22:20:58.697Z,4.03
2018-02-11T22:23:27.434Z,4.02
2018-02-11T22:25:54.884Z,3.96
2018-02-11T22:28:22.364Z,4.18
2018-02-11T22:30:50.127Z,3.99
2018-02-11T22:33:17.590Z,4.00
2018-02-11T22:35:45.045Z,4.00
2018-02-11T22:38:12.797Z,4.02
2018-02-11T22:40:40.250Z,4.07
2018-02-11T22:43:07.713Z,4.12
2018-02-11T22:45:35.805Z,4.16
2018-02-11T22:48:03.268Z,3.90
2018-02-11T22:50:30.722Z,4.17
2018-02-11T22:52:58.519Z,4.11
2018-02-11T22:55:25.987Z,4.09
2018-02-11T22:57:53.441Z,4.13
2018-02-11T23:00:21.482Z,4.04
2018-02-11T23:02:48.932Z,4.16
2018-02-11T23:05:16.391Z,4.04
2018-02-11T23:07:44.181Z,4.09
2018-02-11T23:10:11.649Z,4.07
2018-02-11T23:12:39.108Z,4.22
2018-02-11T23:15:06.861Z,4.30
2018-02-11T23:17:34.315Z,4.05
2018-02-11T23:20:01.776Z,4.21
2018-02-11T23:22:29.616Z,4.02
2018-02-11T23:24:58.297Z,4.24
2018-02-11T23:27:25.753Z,4.04
2018-02-11T23:29:53.763Z,4.35
2018-02-11T23:32:21.220Z,4.17
2018-02-11T23:34:48.713Z,4.19
2018-02-11T23:37:16.440Z,4.38
2018-02-11T23:39:43.889Z,4.24
2018-02-11T23:42:11.349Z,4.38
2018-02-11T23:44:39.062Z,4.29
2018-02-11T23:47:06.520Z,4.35
2018-02-11T23:49:33.980Z,4.24
2018-02-11T23:52:01.782Z,4.19
2018-02-11T23:54:29.248Z,4.21
2018-02-11T23:56:56.696Z,4.49
2018-02-11T23:59:24.517Z,4.26
